createdAt,value
2022-08-09T00:02:18.816Z,14.39
2022-08-09T00:05:03.280Z,14.21
2022-08-09T00:07:45.310Z,14.17
2022-08-09T00:10:21.101Z,14.27
2022-08-09T00:12:54.644Z,14.28
2022-08-09T00:15:59.568Z,14.36
2022-08-09T00:18:26.163Z,14.36
2022-08-09T00:21:08.551Z,14.38
2022-08-09T00:23:56.056Z,14.42
2022-08-09T00:26:32.354Z,14.35
2022-08-09T00:29:12.562Z,14.27
2022-08-09T00:32:00.999Z,14.24
2022-08-09T00:34:33.448Z,14.27
2022-08-09T00:37:21.022Z,14.23
2022-08-09T00:40:12.430Z,14.12
2022-08-09T00:44:26.088Z,14.08
2022-08-09T00:45:35.547Z,14.09
2022-08-09T00:48:07.386Z,13.96
2022-08-09T00:50:40.457Z,13.56
2022-08-09T00:53:24.055Z,13.83
2022-08-09T00:56:05.073Z,13.70
2022-08-09T00:58:38.308Z,13.68
2022-08-09T01:01:32.256Z,13.83
2022-08-09T01:04:19.920Z,13.88
2022-08-09T01:06:59.741Z,13.92
2022-08-09T01:09:54.650Z,13.95
2022-08-09T01:12:35.641Z,13.98
2022-08-09T01:15:17.004Z,14.12
2022-08-09T01:18:30.581Z,14.11
2022-08-09T01:21:44.648Z,14.16
2022-08-09T01:24:34.654Z,14.13
2022-08-09T01:27:14.320Z,14.18
2022-08-09T01:29:55.479Z,14.17
2022-08-09T01:32:34.759Z,14.19
2022-08-09T01:35:28.682Z,14.19
2022-08-09T01:38:18.889Z,14.26
2022-08-09T01:41:13.760Z,14.23
2022-08-09T01:43:52.525Z,14.14
2022-08-09T01:46:42.518Z,14.14
2022-08-09T01:49:18.967Z,14.14
2022-08-09T01:52:10.627Z,14.09
2022-08-09T01:54:48.838Z,14.13
2022-08-09T01:58:10.734Z,14.06
2022-08-09T02:00:50.454Z,14.00
2022-08-09T02:03:21.977Z,13.94
2022-08-09T02:06:09.172Z,13.88
2022-08-09T02:08:58.647Z,13.85
2022-08-09T02:11:42.944Z,13.84
2022-08-09T02:14:25.501Z,13.91
2022-08-09T02:17:59.424Z,13.82
2022-08-09T02:20:09.878Z,13.63
2022-08-09T02:23:17.597Z,13.59
2022-08-09T02:26:00.497Z,13.14
2022-08-09T02:28:54.117Z,13.27
2022-08-09T02:31:36.372Z,13.28
2022-08-09T02:34:40.904Z,13.29
2022-08-09T02:37:15.099Z,13.32
2022-08-09T02:40:01.680Z,13.36
2022-08-09T02:42:37.330Z,13.35
2022-08-09T02:45:15.181Z,13.40
2022-08-09T02:47:57.771Z,13.44
2022-08-09T02:50:38.538Z,13.35
2022-08-09T02:53:25.787Z,13.44
2022-08-09T02:55:59.947Z,13.33
2022-08-09T02:58:37.505Z,13.26
2022-08-09T03:01:10.802Z,13.29
2022-08-09T03:04:18.204Z,13.21
2022-08-09T03:06:36.784Z,13.17
2022-08-09T03:09:09.834Z,13.18
2022-08-09T03:12:09.885Z,13.16
2022-08-09T03:14:32.254Z,13.18
2022-08-09T03:17:26.401Z,13.15
2022-08-09T03:20:03.321Z,13.15
2022-08-09T03:22:57.018Z,13.19
2022-08-09T03:26:13.585Z,13.04
2022-08-09T03:29:01.565Z,13.01
2022-08-09T03:31:42.433Z,13.07
2022-08-09T03:34:27.976Z,12.91
2022-08-09T03:37:10.676Z,12.61
2022-08-09T03:39:55.516Z,12.29
2022-08-09T03:42:26.272Z,11.97
2022-08-09T03:44:57.173Z,12.01
2022-08-09T03:47:30.279Z,12.04
2022-08-09T03:50:12.505Z,12.04
2022-08-09T03:53:10.719Z,11.85
2022-08-09T03:56:00.627Z,12.02
2022-08-09T03:58:33.853Z,11.79
2022-08-09T04:01:01.529Z,11.96
2022-08-09T04:03:45.841Z,11.85
2022-08-09T04:06:13.672Z,11.74
2022-08-09T04:08:42.417Z,11.75
2022-08-09T04:11:14.143Z,11.73
2022-08-09T04:14:37.370Z,11.71
2022-08-09T04:16:29.602Z,11.81
2022-08-09T04:19:02.076Z,12.00
2022-08-09T04:21:31.103Z,12.07
2022-08-09T04:24:09.759Z,12.02
2022-08-09T04:26:38.672Z,12.16
2022-08-09T04:29:15.439Z,12.22
2022-08-09T04:31:47.070Z,12.30
2022-08-09T04:34:18.882Z,12.56
2022-08-09T04:36:59.031Z,12.66
2022-08-09T04:39:30.937Z,12.73
2022-08-09T04:41:59.712Z,12.88
2022-08-09T04:44:28.613Z,12.93
2022-08-09T04:46:59.910Z,12.84
2022-08-09T04:49:53.212Z,12.92
2022-08-09T04:52:26.892Z,13.04
2022-08-09T04:55:02.391Z,13.10
2022-08-09T04:57:58.969Z,13.04
2022-08-09T05:00:31.693Z,13.15
2022-08-09T05:03:12.756Z,13.28
2022-08-09T05:06:06.863Z,13.27
2022-08-09T05:08:35.221Z,13.25
2022-08-09T05:11:17.315Z,13.62
2022-08-09T05:13:44.452Z,13.70
2022-08-09T05:16:15.564Z,13.81
2022-08-09T05:18:57.344Z,13.87
2022-08-09T05:21:47.103Z,13.95
2022-08-09T05:24:31.641Z,14.11
2022-08-09T05:27:07.635Z,14.13
2022-08-09T05:29:40.793Z,14.20
2022-08-09T05:32:09.627Z,14.36
2022-08-09T05:34:45.650Z,14.55
2022-08-09T05:37:14.125Z,14.74
2022-08-09T05:39:46.259Z,14.98
2022-08-09T05:42:39.458Z,15.08
2022-08-09T05:45:07.561Z,15.25
2022-08-09T05:47:35.587Z,15.42
2022-08-09T05:50:30.348Z,15.71
2022-08-09T05:53:21.771Z,15.88
2022-08-09T05:56:06.542Z,16.01
2022-08-09T05:58:35.813Z,16.05
2022-08-09T06:01:04.110Z,16.12
2022-08-09T06:03:44.259Z,16.31
2022-08-09T06:06:23.781Z,16.41
2022-08-09T06:08:52.717Z,16.61
2022-08-09T06:11:20.161Z,16.71
2022-08-09T06:14:09.194Z,16.85
2022-08-09T06:16:37.155Z,16.91
2022-08-09T06:19:06.089Z,17.08
2022-08-09T06:21:35.554Z,17.22
2022-08-09T06:24:18.493Z,17.42
2022-08-09T06:26:47.860Z,17.57
2022-08-09T06:29:15.813Z,17.76
2022-08-09T06:32:08.956Z,17.80
2022-08-09T06:34:30.846Z,17.92
2022-08-09T06:37:05.889Z,18.11
2022-08-09T06:39:49.300Z,18.23
2022-08-09T06:42:30.618Z,18.30
2022-08-09T06:46:05.018Z,18.55
2022-08-09T06:48:00.844Z,18.66
2022-08-09T06:50:36.741Z,18.80
2022-08-09T06:53:05.264Z,18.99
2022-08-09T06:55:33.422Z,19.10
2022-08-09T06:58:04.395Z,19.14
2022-08-09T07:00:50.317Z,19.29
2022-08-09T07:03:27.882Z,19.41
2022-08-09T07:06:03.610Z,19.61
2022-08-09T07:08:37.283Z,19.78
2022-08-09T07:11:12.800Z,19.92
2022-08-09T07:14:04.490Z,19.99
2022-08-09T07:16:42.254Z,20.07
2022-08-09T07:19:22.812Z,20.17
2022-08-09T07:22:07.836Z,20.24
2022-08-09T07:24:49.967Z,20.32
2022-08-09T07:27:34.451Z,20.36
2022-08-09T07:30:13.700Z,20.57
2022-08-09T07:32:41.951Z,20.72
2022-08-09T07:35:12.940Z,20.84
2022-08-09T07:37:45.972Z,21.01
2022-08-09T07:40:54.150Z,21.11
2022-08-09T07:43:22.234Z,21.30
2022-08-09T07:46:03.122Z,21.26
2022-08-09T07:48:39.273Z,21.38
2022-08-09T07:52:03.715Z,21.52
2022-08-09T07:54:14.169Z,21.77
2022-08-09T07:56:45.058Z,21.95
2022-08-09T08:00:08.712Z,22.10
2022-08-09T08:02:59.826Z,22.23
2022-08-09T08:05:53.719Z,22.39
2022-08-09T08:09:00.513Z,22.47
2022-08-09T08:12:09.369Z,22.59
2022-08-09T08:14:24.071Z,22.70
2022-08-09T08:17:09.030Z,22.83
2022-08-09T08:19:41.278Z,23.00
2022-08-09T08:22:12.464Z,23.15
2022-08-09T08:24:44.807Z,23.24
2022-08-09T08:27:18.661Z,23.41
2022-08-09T08:29:49.979Z,23.48
2022-08-09T08:32:29.367Z,23.71
2022-08-09T08:35:02.017Z,23.83
2022-08-09T08:37:41.051Z,24.03
2022-08-09T08:40:30.306Z,24.11
2022-08-09T08:43:01.830Z,24.24
2022-08-09T08:45:50.750Z,24.41
2022-08-09T08:48:29.181Z,24.56
2022-08-09T08:51:07.128Z,24.71
2022-08-09T08:53:37.036Z,24.83
2022-08-09T08:56:06.094Z,24.87
2022-08-09T08:58:36.154Z,24.92
2022-08-09T09:01:08.945Z,25.06
2022-08-09T09:03:50.441Z,25.23
2022-08-09T09:06:21.041Z,25.38
2022-08-09T09:08:52.422Z,25.54
2022-08-09T09:11:23.110Z,25.72
2022-08-09T09:13:57.146Z,25.83
2022-08-09T09:16:33.865Z,25.99
2022-08-09T09:22:26.631Z,26.12
2022-08-09T09:26:02.255Z,26.07
2022-08-09T09:29:03.122Z,26.23
2022-08-09T09:32:01.815Z,26.53
2022-08-09T09:34:18.395Z,26.71
2022-08-09T09:36:53.773Z,26.93
2022-08-09T09:39:42.860Z,27.21
2022-08-09T09:42:23.303Z,27.27
2022-08-09T09:45:06.827Z,27.43
2022-08-09T09:48:04.946Z,27.81
2022-08-09T09:50:52.605Z,28.26
2022-08-09T09:53:57.208Z,28.49
2022-08-09T09:56:31.106Z,28.76
2022-08-09T09:59:00.131Z,28.77
2022-08-09T10:01:36.935Z,28.80
2022-08-09T10:04:30.411Z,29.04
2022-08-09T10:07:10.134Z,29.14
2022-08-09T10:09:54.762Z,29.48
2022-08-09T10:12:43.677Z,29.48
2022-08-09T10:15:50.992Z,29.70
2022-08-09T10:18:13.048Z,29.77
2022-08-09T10:20:45.143Z,30.02
2022-08-09T10:23:23.770Z,30.05
2022-08-09T10:26:06.766Z,30.20
2022-08-09T10:28:37.581Z,30.30
2022-08-09T10:34:10.737Z,30.44
2022-08-09T10:36:57.153Z,30.75
2022-08-09T10:39:28.541Z,30.65
2022-08-09T10:42:03.724Z,30.55
2022-08-09T10:44:31.790Z,30.42
2022-08-09T10:48:19.184Z,30.16
2022-08-09T10:51:03.473Z,30.32
2022-08-09T10:54:12.458Z,30.63
2022-08-09T10:56:42.805Z,31.26
2022-08-09T10:59:31.760Z,31.47
2022-08-09T11:03:14.513Z,31.13
2022-08-09T11:05:25.367Z,30.63
2022-08-09T11:07:59.326Z,30.19
2022-08-09T11:10:54.447Z,29.82
2022-08-09T11:13:50.445Z,29.48
2022-08-09T11:16:33.506Z,29.22
2022-08-09T11:19:10.109Z,29.12
2022-08-09T11:22:05.026Z,29.00
2022-08-09T11:25:09.010Z,28.66
2022-08-09T11:28:27.591Z,28.43
2022-08-09T11:30:54.628Z,28.37
2022-08-09T11:33:42.450Z,28.36
2022-08-09T11:36:35.362Z,28.22
2022-08-09T11:39:07.151Z,28.05
2022-08-09T11:41:40.282Z,28.06
2022-08-09T11:44:08.651Z,27.86
2022-08-09T11:46:52.758Z,27.86
2022-08-09T11:50:53.893Z,27.80
2022-08-09T11:53:58.592Z,27.52
2022-08-09T11:56:14.818Z,27.52
2022-08-09T11:58:56.784Z,27.40
2022-08-09T12:02:16.953Z,27.36
2022-08-09T12:04:38.019Z,27.20
2022-08-09T12:07:07.938Z,27.10
2022-08-09T12:09:38.076Z,26.77
2022-08-09T12:12:12.072Z,26.97
2022-08-09T12:15:07.552Z,27.04
2022-08-09T12:17:52.053Z,27.10
2022-08-09T12:20:26.283Z,27.05
2022-08-09T12:22:59.402Z,27.19
2022-08-09T12:25:36.181Z,27.39
2022-08-09T12:29:11.255Z,27.26
2022-08-09T12:31:58.257Z,27.26
2022-08-09T12:34:17.261Z,27.28
2022-08-09T12:36:58.966Z,27.50
2022-08-09T12:40:01.351Z,27.74
2022-08-09T12:42:45.383Z,27.99
2022-08-09T12:45:34.381Z,28.15
2022-08-09T12:48:00.776Z,28.29
2022-08-09T12:50:28.500Z,28.36
2022-08-09T12:53:07.851Z,28.60
2022-08-09T12:56:12.894Z,28.76
2022-08-09T12:58:29.185Z,28.86
2022-08-09T13:00:58.730Z,29.01
2022-08-09T13:03:53.289Z,29.13
2022-08-09T13:06:34.369Z,29.27
2022-08-09T13:09:18.378Z,29.41
2022-08-09T13:11:49.070Z,29.56
2022-08-09T13:14:42.308Z,29.93
2022-08-09T13:17:43.701Z,30.60
2022-08-09T13:20:16.106Z,31.28
2022-08-09T13:23:00.385Z,31.80
2022-08-09T13:25:54.574Z,32.22
2022-08-09T13:28:33.869Z,32.62
2022-08-09T13:32:14.186Z,32.85
2022-08-09T13:33:58.639Z,33.08
2022-08-09T13:36:42.626Z,33.16
2022-08-09T13:39:31.073Z,33.17
2022-08-09T13:42:14.164Z,33.17
2022-08-09T13:44:48.731Z,33.53
2022-08-09T13:47:31.309Z,33.59
2022-08-09T13:50:18.263Z,33.69
2022-08-09T13:52:56.041Z,33.21
2022-08-09T13:55:23.513Z,33.27
2022-08-09T13:57:56.099Z,33.48
2022-08-09T14:00:27.326Z,34.08
2022-08-09T14:03:04.297Z,33.92
2022-08-09T14:05:58.643Z,34.29
2022-08-09T14:08:29.749Z,34.82
2022-08-09T14:11:00.180Z,34.69
2022-08-09T14:14:22.538Z,34.30
2022-08-09T14:16:28.116Z,33.71
2022-08-09T14:19:03.522Z,33.13
2022-08-09T14:21:31.941Z,32.72
2022-08-09T14:24:18.284Z,32.29
2022-08-09T14:27:02.961Z,31.45
2022-08-09T14:30:35.227Z,30.80
2022-08-09T14:32:41.815Z,30.08
2022-08-09T14:35:17.594Z,29.57
2022-08-09T14:38:01.902Z,29.25
2022-08-09T14:41:00.509Z,29.30
2022-08-09T14:43:47.634Z,29.51
2022-08-09T14:46:55.000Z,29.78
2022-08-09T14:49:11.182Z,30.05
2022-08-09T14:51:42.249Z,29.78
2022-08-09T14:54:10.015Z,29.57
2022-08-09T14:56:58.054Z,29.36
2022-08-09T14:59:29.158Z,29.22
2022-08-09T15:02:01.801Z,29.13
2022-08-09T15:04:29.678Z,29.01
2022-08-09T15:07:13.053Z,28.87
2022-08-09T15:10:07.361Z,28.86
2022-08-09T15:12:36.707Z,28.90
2022-08-09T15:15:04.358Z,28.72
2022-08-09T15:17:42.149Z,28.70
2022-08-09T15:21:55.401Z,28.51
2022-08-09T15:24:00.955Z,28.58
2022-08-09T15:25:55.832Z,28.49
2022-08-09T15:28:27.868Z,28.51
2022-08-09T15:31:10.397Z,28.51
2022-08-09T15:34:32.056Z,28.44
2022-08-09T15:36:32.379Z,28.40
2022-08-09T15:39:05.408Z,28.36
2022-08-09T15:41:40.139Z,28.23
2022-08-09T15:44:13.616Z,28.09
2022-08-09T15:46:46.182Z,28.04
2022-08-09T15:49:23.740Z,27.91
2022-08-09T15:52:03.907Z,27.90
2022-08-09T15:54:44.916Z,27.92
2022-08-09T15:57:34.625Z,27.82
2022-08-09T16:03:18.899Z,27.76
2022-08-09T16:06:01.532Z,27.63
2022-08-09T16:08:31.751Z,27.61
2022-08-09T16:11:08.661Z,27.51
2022-08-09T16:14:03.929Z,27.51
2022-08-09T16:16:26.077Z,27.53
2022-08-09T16:18:55.402Z,27.57
2022-08-09T16:21:25.595Z,27.65
2022-08-09T16:24:02.354Z,27.73
2022-08-09T16:26:34.456Z,27.74
2022-08-09T16:29:14.849Z,27.83
2022-08-09T16:32:19.375Z,27.85
2022-08-09T16:34:55.743Z,27.86
2022-08-09T16:37:54.651Z,27.82
2022-08-09T16:40:29.398Z,27.73
2022-08-09T16:43:05.111Z,27.65
2022-08-09T16:45:33.132Z,27.65
2022-08-09T16:48:43.170Z,27.57
2022-08-09T16:50:59.183Z,27.58
2022-08-09T16:53:32.356Z,27.53
2022-08-09T16:56:10.008Z,27.37
2022-08-09T16:58:50.439Z,27.23
2022-08-09T17:01:24.669Z,27.08
2022-08-09T17:04:00.300Z,26.98
2022-08-09T17:06:31.691Z,26.90
2022-08-09T17:09:43.603Z,26.87
2022-08-09T17:11:52.565Z,26.83
2022-08-09T17:14:29.005Z,26.80
2022-08-09T17:17:26.333Z,26.82
2022-08-09T17:20:30.311Z,26.73
2022-08-09T17:22:49.603Z,26.64
2022-08-09T17:25:18.723Z,26.60
2022-08-09T17:27:49.535Z,26.56
2022-08-09T17:30:30.724Z,26.31
2022-08-09T17:33:04.779Z,26.22
2022-08-09T17:35:40.900Z,26.13
2022-08-09T17:38:13.819Z,25.98
2022-08-09T17:40:57.752Z,25.90
2022-08-09T17:43:33.486Z,25.80
2022-08-09T17:46:07.052Z,25.62
2022-08-09T17:48:51.811Z,25.54
2022-08-09T17:51:22.175Z,25.47
2022-08-09T17:53:53.636Z,25.48
2022-08-09T17:56:37.463Z,25.37
2022-08-09T17:59:11.847Z,25.39
2022-08-09T18:02:07.692Z,25.25
2022-08-09T18:04:34.390Z,25.21
2022-08-09T18:07:07.684Z,25.15
2022-08-09T18:09:41.292Z,25.01
2022-08-09T18:12:30.021Z,24.89
2022-08-09T18:15:07.295Z,24.69
2022-08-09T18:18:03.605Z,24.32
2022-08-09T18:20:56.292Z,24.26
2022-08-09T18:24:11.736Z,24.16
2022-08-09T18:26:08.723Z,24.00
2022-08-09T18:30:38.672Z,23.89
2022-08-09T18:31:51.443Z,23.68
2022-08-09T18:34:14.538Z,23.56
2022-08-09T18:36:49.416Z,23.45
2022-08-09T18:39:18.771Z,23.41
2022-08-09T18:41:52.536Z,23.24
2022-08-09T18:44:25.737Z,23.12
2022-08-09T18:47:05.156Z,23.04
2022-08-09T18:49:43.829Z,22.84
2022-08-09T18:52:18.776Z,22.79
2022-08-09T18:54:53.544Z,22.64
2022-08-09T18:57:22.959Z,22.54
2022-08-09T18:59:55.512Z,22.51
2022-08-09T19:02:32.224Z,22.40
2022-08-09T19:05:20.436Z,22.14
2022-08-09T19:08:04.340Z,21.95
2022-08-09T19:10:39.752Z,21.68
2022-08-09T19:13:22.503Z,21.56
2022-08-09T19:15:58.940Z,21.23
2022-08-09T19:18:34.143Z,21.10
2022-08-09T19:21:10.622Z,20.85
2022-08-09T19:24:33.234Z,20.72
2022-08-09T19:26:37.992Z,20.57
2022-08-09T19:29:18.100Z,20.38
2022-08-09T19:31:49.468Z,20.29
2022-08-09T19:34:22.632Z,20.05
2022-08-09T19:36:58.858Z,19.95
2022-08-09T19:39:43.553Z,19.46
2022-08-09T19:42:19.565Z,19.38
2022-08-09T19:44:54.008Z,19.34
2022-08-09T19:47:27.049Z,19.39
2022-08-09T19:50:10.288Z,19.04
2022-08-09T19:52:52.137Z,18.78
2022-08-09T19:55:30.776Z,18.70
2022-08-09T19:58:15.887Z,18.33
2022-08-09T20:01:04.409Z,18.42
2022-08-09T20:04:16.943Z,18.60
2022-08-09T20:06:22.609Z,18.79
2022-08-09T20:08:57.015Z,18.73
2022-08-09T20:11:48.730Z,18.67
2022-08-09T20:14:30.323Z,18.57
2022-08-09T20:16:57.934Z,18.24
2022-08-09T20:19:49.394Z,18.23
2022-08-09T20:22:14.147Z,18.25
2022-08-09T20:25:52.187Z,18.22
2022-08-09T20:28:34.045Z,18.00
2022-08-09T20:31:25.387Z,17.74
2022-08-09T20:34:02.008Z,17.74
2022-08-09T20:36:35.225Z,17.96
2022-08-09T20:39:29.111Z,18.06
2022-08-09T20:42:04.387Z,17.99
2022-08-09T20:45:00.424Z,17.81
2022-08-09T20:47:48.226Z,17.56
2022-08-09T20:50:47.730Z,17.51
2022-08-09T20:53:35.627Z,17.27
2022-08-09T20:56:02.572Z,17.66
2022-08-09T20:58:34.193Z,17.29
2022-08-09T21:01:51.110Z,16.72
2022-08-09T21:05:54.279Z,17.04
2022-08-09T21:07:13.988Z,16.91
2022-08-09T21:09:55.295Z,16.82
2022-08-09T21:15:24.911Z,16.57
2022-08-09T21:18:24.061Z,16.49
2022-08-09T21:21:00.550Z,16.17
2022-08-09T21:23:51.630Z,16.26
2022-08-09T21:26:36.331Z,16.08
2022-08-09T21:29:12.016Z,15.71
2022-08-09T21:31:51.059Z,15.52
2022-08-09T21:34:28.665Z,15.66
2022-08-09T21:36:57.308Z,15.59
2022-08-09T21:39:42.206Z,15.87
2022-08-09T21:42:28.475Z,15.85
2022-08-09T21:45:06.834Z,15.96
2022-08-09T21:47:37.565Z,15.98
2022-08-09T21:50:06.246Z,15.94
2022-08-09T21:52:35.478Z,15.89
2022-08-09T21:55:05.800Z,15.94
2022-08-09T21:57:59.706Z,16.00
2022-08-09T22:00:32.385Z,16.03
2022-08-09T22:03:04.743Z,16.06
2022-08-09T22:05:42.297Z,16.08
2022-08-09T22:08:15.257Z,15.99
2022-08-09T22:11:00.462Z,16.06
2022-08-09T22:13:54.051Z,16.02
2022-08-09T22:16:22.182Z,16.08
2022-08-09T22:18:54.583Z,15.98
2022-08-09T22:21:45.037Z,15.98
2022-08-09T22:24:24.930Z,15.94
2022-08-09T22:26:57.105Z,15.74
2022-08-09T22:29:46.586Z,15.66
2022-08-09T22:32:30.118Z,15.44
2022-08-09T22:36:01.823Z,14.75
2022-08-09T22:38:07.056Z,14.58
2022-08-09T22:40:49.049Z,14.47
2022-08-09T22:44:01.823Z,14.56
2022-08-09T22:48:12.787Z,14.92
2022-08-09T22:49:13.368Z,15.13
2022-08-09T22:51:43.497Z,15.18
2022-08-09T22:54:21.147Z,15.30
2022-08-09T22:56:58.734Z,15.24
2022-08-09T22:59:56.774Z,15.24
2022-08-09T23:02:21.132Z,15.20
2022-08-09T23:05:02.152Z,15.10
2022-08-09T23:08:27.771Z,15.12
2022-08-09T23:10:43.712Z,15.10
2022-08-09T23:13:36.804Z,15.02
2022-08-09T23:16:04.082Z,14.91
2022-08-09T23:18:33.303Z,14.91
2022-08-09T23:21:07.559Z,14.95
2022-08-09T23:23:35.219Z,14.80
2022-08-09T23:26:03.054Z,14.82
2022-08-09T23:28:32.694Z,14.74
2022-08-09T23:31:02.596Z,14.82
2022-08-09T23:33:29.782Z,14.55
2022-08-09T23:36:07.421Z,14.10
2022-08-09T23:38:48.571Z,14.04
2022-08-09T23:41:27.597Z,13.71
2022-08-09T23:44:00.670Z,13.49
2022-08-09T23:46:30.040Z,13.73
2022-08-09T23:48:58.193Z,13.79
2022-08-09T23:51:25.746Z,13.88
2022-08-09T23:54:03.187Z,13.95
2022-08-09T23:56:52.118Z,14.07
2022-08-09T23:59:21.289Z,14.09
